Time;durP1;ratioP1;P1;durP2;ratioP2;P2;SDS_P1;SDS_P2;PMS_P1;PMS_P2;Temp;Humidity;BMP_temperature;BMP_pressure;BME280_temperature;BME280_humidity;BME280_pressure;Samples;Min_cycle;Max_cycle;Signal;HPM_P1;HPM_P2
2022/12/23 00:02:09;;;;;;;9.6;4.9;;;;;;;;;;;;;
2022/12/23 00:04:34;;;;;;;16.6;9.4;;;;;;;;;;;;;
2022/12/23 00:07:05;;;;;;;2.6;1.7;;;;;;;;;;;;;
2022/12/23 00:09:39;;;;;;;3.2;2;;;;;;;;;;;;;
2022/12/23 00:17:03;;;;;;;5.8;3.8;;;;;;;;;;;;;
2022/12/23 00:19:32;;;;;;;10.4;5.5;;;;;;;;;;;;;
2022/12/23 00:21:57;;;;;;;17.5;9.4;;;;;;;;;;;;;
2022/12/23 00:24:27;;;;;;;6.8;4.3;;;;;;;;;;;;;
2022/12/23 00:26:58;;;;;;;6.6;3.6;;;;;;;;;;;;;
2022/12/23 00:29:25;;;;;;;2.7;1.5;;;;;;;;;;;;;
2022/12/23 00:31:50;;;;;;;4.7;2.4;;;;;;;;;;;;;
2022/12/23 00:37:17;;;;;;;4.9;2.7;;;;;;;;;;;;;
2022/12/23 00:44:33;;;;;;;4.1;1.6;;;;;;;;;;;;;
2022/12/23 00:47:00;;;;;;;2.6;1.5;;;;;;;;;;;;;
2022/12/23 00:49:43;;;;;;;2.4;1.5;;;;;;;;;;;;;
2022/12/23 00:51:50;;;;;;;1.6;1.2;;;;;;;;;;;;;
2022/12/23 00:54:16;;;;;;;4.2;1.4;;;;;;;;;;;;;
2022/12/23 00:56:58;;;;;;;2.4;1.6;;;;;;;;;;;;;
2022/12/23 00:59:23;;;;;;;3.1;2.1;;;;;;;;;;;;;
2022/12/23 01:06:39;;;;;;;2.7;1.5;;;;;;;;;;;;;
2022/12/23 01:09:05;;;;;;;4.3;1.6;;;;;;;;;;;;;
2022/12/23 01:11:30;;;;;;;4.4;1.7;;;;;;;;;;;;;
2022/12/23 01:13:57;;;;;;;3.6;1.4;;;;;;;;;;;;;
2022/12/23 01:16:22;;;;;;;2.7;1.2;;;;;;;;;;;;;
2022/12/23 01:18:48;;;;;;;2.1;1.2;;;;;;;;;;;;;
2022/12/23 01:21:13;;;;;;;3;1.4;;;;;;;;;;;;;
2022/12/23 01:23:39;;;;;;;2.7;1.1;;;;;;;;;;;;;
2022/12/23 01:26:06;;;;;;;3.3;1.6;;;;;;;;;;;;;
2022/12/23 01:28:31;;;;;;;3.7;2.1;;;;;;;;;;;;;
2022/12/23 01:31:26;;;;;;;2.5;1.9;;;;;;;;;;;;;
2022/12/23 01:33:51;;;;;;;4.7;2.6;;;;;;;;;;;;;
2022/12/23 01:36:16;;;;;;;6.6;3.2;;;;;;;;;;;;;
2022/12/23 01:38:43;;;;;;;4.9;3.8;;;;;;;;;;;;;
2022/12/23 01:42:42;;;;;;;7.1;3.3;;;;;;;;;;;;;
2022/12/23 01:43:33;;;;;;;4.6;3.1;;;;;;;;;;;;;
2022/12/23 01:45:59;;;;;;;5;3.3;;;;;;;;;;;;;
2022/12/23 01:48:24;;;;;;;5.3;2.5;;;;;;;;;;;;;
2022/12/23 01:50:49;;;;;;;4.7;2.7;;;;;;;;;;;;;
2022/12/23 01:53:15;;;;;;;3.5;2.6;;;;;;;;;;;;;
2022/12/23 01:55:40;;;;;;;3.5;2;;;;;;;;;;;;;
2022/12/23 01:58:05;;;;;;;6;2.1;;;;;;;;;;;;;
2022/12/23 02:03:55;;;;;;;1.5;1.1;;;;;;;;;;;;;
2022/12/23 02:05:22;;;;;;;3.2;1.4;;;;;;;;;;;;;
2022/12/23 02:10:12;;;;;;;2;1;;;;;;;;;;;;;
2022/12/23 02:12:37;;;;;;;1.9;1.1;;;;;;;;;;;;;
2022/12/23 02:17:29;;;;;;;2.1;1;;;;;;;;;;;;;
2022/12/23 02:19:54;;;;;;;2.6;1;;;;;;;;;;;;;
2022/12/23 02:22:19;;;;;;;1.3;0.8;;;;;;;;;;;;;
2022/12/23 02:24:51;;;;;;;1.1;0.9;;;;;;;;;;;;;
2022/12/23 02:27:17;;;;;;;1.1;0.7;;;;;;;;;;;;;
2022/12/23 02:29:43;;;;;;;1.6;0.8;;;;;;;;;;;;;
2022/12/23 02:32:08;;;;;;;1.5;1.1;;;;;;;;;;;;;
2022/12/23 02:34:33;;;;;;;0.9;0.8;;;;;;;;;;;;;
2022/12/23 02:36:58;;;;;;;2.1;1.1;;;;;;;;;;;;;
2022/12/23 02:39:29;;;;;;;1;0.8;;;;;;;;;;;;;
2022/12/23 02:41:54;;;;;;;2.5;1.1;;;;;;;;;;;;;
2022/12/23 02:44:19;;;;;;;0.7;0.6;;;;;;;;;;;;;
2022/12/23 02:46:44;;;;;;;0.6;0.5;;;;;;;;;;;;;
2022/12/23 02:49:09;;;;;;;0.9;0.5;;;;;;;;;;;;;
2022/12/23 02:51:34;;;;;;;1;0.6;;;;;;;;;;;;;
2022/12/23 02:53:59;;;;;;;1.4;0.8;;;;;;;;;;;;;
2022/12/23 02:56:25;;;;;;;1.5;0.9;;;;;;;;;;;;;
2022/12/23 02:58:50;;;;;;;1.1;0.7;;;;;;;;;;;;;
2022/12/23 03:01:16;;;;;;;2.8;0.8;;;;;;;;;;;;;
2022/12/23 03:03:41;;;;;;;1.1;0.6;;;;;;;;;;;;;
2022/12/23 03:06:07;;;;;;;1.1;0.5;;;;;;;;;;;;;
2022/12/23 03:08:32;;;;;;;1.3;0.6;;;;;;;;;;;;;
2022/12/23 03:10:58;;;;;;;1;0.6;;;;;;;;;;;;;
2022/12/23 03:13:23;;;;;;;1.3;0.6;;;;;;;;;;;;;
2022/12/23 03:16:25;;;;;;;0.4;0.4;;;;;;;;;;;;;
2022/12/23 03:18:50;;;;;;;0.6;0.5;;;;;;;;;;;;;
2022/12/23 03:21:15;;;;;;;1;0.7;;;;;;;;;;;;;
2022/12/23 03:23:40;;;;;;;1.7;0.6;;;;;;;;;;;;;
2022/12/23 03:26:05;;;;;;;1.4;0.6;;;;;;;;;;;;;
2022/12/23 03:28:32;;;;;;;0.9;0.5;;;;;;;;;;;;;
2022/12/23 03:30:57;;;;;;;1.4;0.7;;;;;;;;;;;;;
2022/12/23 03:33:23;;;;;;;1.5;0.6;;;;;;;;;;;;;
2022/12/23 03:35:48;;;;;;;1.1;0.6;;;;;;;;;;;;;
2022/12/23 03:38:16;;;;;;;2.2;0.8;;;;;;;;;;;;;
2022/12/23 03:40:41;;;;;;;0.7;0.7;;;;;;;;;;;;;
2022/12/23 03:43:06;;;;;;;2;0.9;;;;;;;;;;;;;
2022/12/23 03:45:31;;;;;;;2.6;0.9;;;;;;;;;;;;;
2022/12/23 03:47:56;;;;;;;1.5;0.8;;;;;;;;;;;;;
2022/12/23 03:50:21;;;;;;;1.5;1;;;;;;;;;;;;;
2022/12/23 03:52:46;;;;;;;1.1;0.8;;;;;;;;;;;;;
2022/12/23 03:55:11;;;;;;;2.3;0.8;;;;;;;;;;;;;
2022/12/23 03:57:42;;;;;;;1.1;0.8;;;;;;;;;;;;;
2022/12/23 04:02:41;;;;;;;2.1;1.1;;;;;;;6.96;100;931.4141;;;;
2022/12/23 04:05:12;;;;;;;1.1;0.8;;;;;;;6.98;100;931.5845;;;;
2022/12/23 04:07:42;;;;;;;0.9;0.9;;;;;;;6.99;100;931.6495;;;;
2022/12/23 04:10:11;;;;;;;2.7;1.2;;;;;;;7.01;100;931.8044;;;;
2022/12/23 04:12:36;;;;;;;1.2;1;;;;;;;7.06;100;931.584;;;;
2022/12/23 04:15:02;;;;;;;1.6;1.2;;;;;;;7.09;100;931.5836;;;;
2022/12/23 04:18:11;;;;;;;1.5;1.1;;;;;;;7.19;100;931.5571;;;;
2022/12/23 04:20:41;;;;;;;1.3;1.1;;;;;;;7.11;100;931.5206;;;;
2022/12/23 04:23:11;;;;;;;2.9;1.7;;;;;;;7.07;100;931.5818;;;;
2022/12/23 04:25:36;;;;;;;4.1;2;;;;;;;7.06;100;931.5905;;;;
2022/12/23 04:28:05;;;;;;;2.9;1.4;;;;;;;7.09;100;931.5765;;;;
2022/12/23 04:30:30;;;;;;;4.8;2.9;;;;;;;7.09;100;931.6439;;;;
2022/12/23 04:35:43;;;;;;;2;1.4;;;;;;;7.12;100;931.6347;;;;
2022/12/23 04:38:08;;;;;;;3.4;2.1;;;;;;;7.12;100;931.5111;;;;
2022/12/23 04:46:57;;;;;;;1.1;0.9;;;;;;;7.29;100;931.5458;;;;
2022/12/23 04:49:24;;;;;;;2.6;0.9;;;;;;;7.31;99.51074;931.4597;;;;
2022/12/23 04:51:50;;;;;;;1.4;0.9;;;;;;;7.35;99.49609;931.4822;;;;
2022/12/23 04:54:16;;;;;;;1.1;0.8;;;;;;;7.35;99.59766;931.5647;;;;
2022/12/23 04:56:41;;;;;;;4.8;1.1;;;;;;;7.39;99.27051;931.5429;;;;
2022/12/23 04:59:28;;;;;;;1.5;1;;;;;;;7.41;99.06641;931.5961;;;;
2022/12/23 05:01:56;;;;;;;0.9;0.7;;;;;;;7.39;99.24414;931.6989;;;;
2022/12/23 05:04:22;;;;;;;1;0.9;;;;;;;7.42;99.61719;931.6813;;;;
2022/12/23 05:06:51;;;;;;;1.5;1.1;;;;;;;7.35;100;931.7459;;;;
2022/12/23 05:09:16;;;;;;;0.8;0.8;;;;;;;7.33;100;931.68;;;;
2022/12/23 05:12:26;;;;;;;2.3;1.5;;;;;;;7.21;100;931.5706;;;;
2022/12/23 05:14:56;;;;;;;2.7;1.2;;;;;;;7.22;100;931.572;;;;
2022/12/23 05:17:22;;;;;;;1.1;0.9;;;;;;;7.25;100;931.5492;;;;
2022/12/23 05:19:52;;;;;;;2.3;1.8;;;;;;;7.33;100;931.635;;;;
2022/12/23 05:22:17;;;;;;;3.2;2.2;;;;;;;7.38;100;931.5341;;;;
2022/12/23 05:24:42;;;;;;;2.3;1.6;;;;;;;7.4;100;931.6412;;;;
2022/12/23 05:27:08;;;;;;;1.5;1.2;;;;;;;7.45;100;931.6848;;;;
2022/12/23 05:29:40;;;;;;;1.1;1;;;;;;;7.5;100;931.6519;;;;
2022/12/23 05:32:24;;;;;;;1;0.9;;;;;;;7.47;100;931.7;;;;
2022/12/23 05:34:55;;;;;;;1.1;0.7;;;;;;;7.54;100;931.7561;;;;
2022/12/23 05:37:19;;;;;;;1;0.7;;;;;;;7.52;99.75098;931.7678;;;;
2022/12/23 05:40:05;;;;;;;1.1;0.9;;;;;;;7.56;99.3877;931.9299;;;;
2022/12/23 05:42:30;;;;;;;1.7;0.7;;;;;;;7.73;99.18652;931.9326;;;;
2022/12/23 05:44:59;;;;;;;1.2;1;;;;;;;7.75;98.62598;931.9241;;;;
2022/12/23 05:47:24;;;;;;;1.3;1.2;;;;;;;7.69;98.69336;931.9695;;;;
2022/12/23 05:49:54;;;;;;;1.9;1.1;;;;;;;7.64;98.51074;931.9714;;;;
2022/12/23 05:52:19;;;;;;;1.7;1.4;;;;;;;7.63;99.0166;932.0244;;;;
2022/12/23 05:54:48;;;;;;;2.6;1.6;;;;;;;7.53;99.52637;931.92;;;;
2022/12/23 05:57:13;;;;;;;3;1.8;;;;;;;7.49;99.8584;932.0916;;;;
2022/12/23 06:00:37;;;;;;;2.5;1.9;;;;;;;7.58;99.9248;932.041;;;;
2022/12/23 06:03:05;;;;;;;3.5;1.6;;;;;;;7.64;99.84668;932.1116;;;;
2022/12/23 06:05:30;;;;;;;1.6;1.2;;;;;;;7.62;99.82129;932.0734;;;;
2022/12/23 06:08:00;;;;;;;1.8;1.3;;;;;;;7.61;99.28418;932.04;;;;
2022/12/23 06:10:25;;;;;;;2.2;1.4;;;;;;;7.48;99.92188;931.9417;;;;
2022/12/23 06:12:54;;;;;;;1.8;1.5;;;;;;;7.46;99.26074;932.0278;;;;
2022/12/23 06:17:50;;;;;;;1.1;1;;;;;;;7.54;99.54004;932.0603;;;;
2022/12/23 06:20:15;;;;;;;1;0.8;;;;;;;7.51;99.59082;932.0948;;;;
2022/12/23 06:22:45;;;;;;;0.9;0.8;;;;;;;7.49;99.90332;932.0059;;;;
2022/12/23 06:25:15;;;;;;;0.9;0.8;;;;;;;7.54;100;932.0413;;;;
2022/12/23 06:27:47;;;;;;;1.1;0.9;;;;;;;7.63;99.95996;932.1741;;;;
2022/12/23 06:30:19;;;;;;;1;0.9;;;;;;;7.72;99.60449;932.0901;;;;
2022/12/23 06:32:50;;;;;;;1.2;1;;;;;;;7.75;99.72656;932.1578;;;;
2022/12/23 06:35:21;;;;;;;1.7;1.1;;;;;;;7.82;99.5498;932.1113;;;;
2022/12/23 06:37:52;;;;;;;2.5;1.2;;;;;;;7.88;99.16602;932.199;;;;
2022/12/23 06:40:21;;;;;;;3.5;2.1;;;;;;;7.8;98.96484;932.3326;;;;
2022/12/23 06:42:47;;;;;;;5.3;3.7;;;;;;;7.63;99.67383;932.2858;;;;
2022/12/23 06:45:16;;;;;;;8.1;5.3;;;;;;;7.55;100;932.2497;;;;
2022/12/23 06:47:41;;;;;;;16.3;10.5;;;;;;;7.43;100;932.307;;;;
2022/12/23 06:50:14;;;;;;;16.7;11.1;;;;;;;7.33;100;932.3002;;;;
2022/12/23 06:52:42;;;;;;;10;7.1;;;;;;;7.29;100;932.3574;;;;
2022/12/23 06:55:16;;;;;;;11;8.1;;;;;;;7.31;100;932.4045;;;;
2022/12/23 06:57:43;;;;;;;10.2;7;;;;;;;7.31;100;932.3886;;;;
2022/12/23 07:00:09;;;;;;;10.5;6.5;;;;;;;7.34;100;932.3295;;;;
2022/12/23 07:02:34;;;;;;;10.5;5.6;;;;;;;7.39;100;932.3792;;;;
2022/12/23 07:05:02;;;;;;;10.2;6.7;;;;;;;7.38;100;932.3521;;;;
2022/12/23 07:07:27;;;;;;;9.1;5.8;;;;;;;7.26;100;932.3697;;;;
2022/12/23 07:09:55;;;;;;;6.8;5.4;;;;;;;7.22;100;932.53;;;;
2022/12/23 07:12:21;;;;;;;6.3;4.7;;;;;;;7.24;100;932.6269;;;;
2022/12/23 07:14:50;;;;;;;5.8;4.9;;;;;;;7.26;100;932.666;;;;
2022/12/23 07:17:15;;;;;;;6.3;5.4;;;;;;;7.32;100;932.6944;;;;
2022/12/23 07:19:45;;;;;;;7.8;5.9;;;;;;;7.39;100;932.5891;;;;
2022/12/23 07:23:30;;;;;;;6.2;5.6;;;;;;;7.38;100;932.5239;;;;
2022/12/23 07:29:03;;;;;;;6.8;4.9;;;;;;;7.49;100;932.6492;;;;
2022/12/23 07:31:30;;;;;;;6.9;4.8;;;;;;;7.41;100;932.6351;;;;
2022/12/23 07:33:55;;;;;;;7;5.1;;;;;;;7.42;100;932.6286;;;;
2022/12/23 07:36:21;;;;;;;6.2;4.3;;;;;;;7.51;100;932.6002;;;;
2022/12/23 07:38:46;;;;;;;11;8.2;;;;;;;7.54;100;932.6378;;;;
2022/12/23 07:41:11;;;;;;;7.8;6.5;;;;;;;7.59;100;932.5322;;;;
2022/12/23 07:43:38;;;;;;;6.5;5.4;;;;;;;7.51;100;932.5266;;;;
2022/12/23 07:46:03;;;;;;;5.9;4.6;;;;;;;7.51;100;932.4735;;;;
2022/12/23 07:48:30;;;;;;;7.2;5.4;;;;;;;7.59;100;932.4348;;;;
2022/12/23 07:50:55;;;;;;;7.3;5.9;;;;;;;7.56;100;932.5106;;;;
2022/12/23 07:53:23;;;;;;;11.7;7.2;;;;;;;7.64;100;932.5291;;;;
2022/12/23 07:55:48;;;;;;;9.8;6.5;;;;;;;7.61;100;932.631;;;;
2022/12/23 07:58:16;;;;;;;5.6;4.9;;;;;;;7.58;100;932.6685;;;;
2022/12/23 08:00:41;;;;;;;6.8;4.7;;;;;;;7.58;100;932.6636;;;;
2022/12/23 08:03:09;;;;;;;6.3;4.6;;;;;;;7.61;100;932.7142;;;;
2022/12/23 08:05:34;;;;;;;5.8;3.9;;;;;;;7.7;100;932.6169;;;;
2022/12/23 08:08:00;;;;;;;6.3;3.6;;;;;;;7.74;100;932.8337;;;;
2022/12/23 08:10:25;;;;;;;3.4;2.8;;;;;;;7.79;100;932.6884;;;;
2022/12/23 08:12:54;;;;;;;4.5;2.7;;;;;;;7.88;100;932.7603;;;;
2022/12/23 08:15:19;;;;;;;3.8;2.8;;;;;;;8.05;100;932.5886;;;;
2022/12/23 08:17:45;;;;;;;4.9;2.7;;;;;;;8.12;100;932.5258;;;;
2022/12/23 08:20:15;;;;;;;6.9;6.4;;;;;;;8.03;100;932.6795;;;;
2022/12/23 08:22:44;;;;;;;4.5;3.9;;;;;;;8.18;100;932.6041;;;;
2022/12/23 08:25:09;;;;;;;4.8;3.2;;;;;;;8.29;100;932.5886;;;;
2022/12/23 08:27:39;;;;;;;3.3;3;;;;;;;8.42;100;932.5435;;;;
2022/12/23 08:30:08;;;;;;;2.7;2.4;;;;;;;8.44;100;932.5984;;;;
2022/12/23 08:32:33;;;;;;;3.7;1.7;;;;;;;8.41;100;932.5991;;;;
2022/12/23 08:35:02;;;;;;;1.7;1.6;;;;;;;8.3;100;932.6831;;;;
2022/12/23 08:37:27;;;;;;;2.4;2.1;;;;;;;8.3;100;932.733;;;;
2022/12/23 08:39:56;;;;;;;2.1;1.9;;;;;;;8.43;100;932.4786;;;;
2022/12/23 08:42:21;;;;;;;4.9;4.1;;;;;;;8.4;100;932.4153;;;;
2022/12/23 08:44:46;;;;;;;9.6;8.8;;;;;;;8.47;100;932.5424;;;;
2022/12/23 08:47:11;;;;;;;3.7;3.3;;;;;;;8.55;100;932.5358;;;;
2022/12/23 08:49:39;;;;;;;2.1;1.9;;;;;;;8.68;99.59863;932.6259;;;;
2022/12/23 08:52:04;;;;;;;3.5;2.3;;;;;;;8.65;99.33105;932.6083;;;;
2022/12/23 08:54:36;;;;;;;3;2.7;;;;;;;8.64;99.71777;932.6939;;;;
2022/12/23 08:57:05;;;;;;;4.6;3.8;;;;;;;8.62;99.76855;932.7605;;;;
2022/12/23 08:59:30;;;;;;;11.3;6.4;;;;;;;8.74;99.17188;932.7399;;;;
2022/12/23 09:02:00;;;;;;;5.9;3.5;;;;;;;8.56;98.30078;932.7422;;;;
2022/12/23 09:04:23;;;;;;;7.9;4.8;;;;;;;8.42;99.57422;932.7347;;;;
2022/12/23 09:06:49;;;;;;;9.3;5.4;;;;;;;8.52;100;932.73;;;;
2022/12/23 09:09:15;;;;;;;8.9;5.2;;;;;;;8.6;99.59375;932.7338;;;;
2022/12/23 09:11:43;;;;;;;6.4;4.1;;;;;;;8.87;99.22461;932.7935;;;;
2022/12/23 09:14:09;;;;;;;8.7;5.6;;;;;;;9.11;98.9707;932.7286;;;;
2022/12/23 09:16:33;;;;;;;5;4.1;;;;;;;9.45;97.75098;932.7841;;;;
2022/12/23 09:18:58;;;;;;;6.9;5.5;;;;;;;9.49;96.24512;932.7661;;;;
2022/12/23 09:21:23;;;;;;;8.1;5.3;;;;;;;9.51;96.43262;932.6953;;;;
2022/12/23 09:23:48;;;;;;;7;5.5;;;;;;;9.47;96.67383;932.7366;;;;
2022/12/23 09:26:14;;;;;;;6.6;5.1;;;;;;;9.38;96.76758;932.7278;;;;
2022/12/23 09:28:39;;;;;;;6.4;4.4;;;;;;;9.47;96.86719;932.6817;;;;
2022/12/23 09:31:08;;;;;;;4.8;4.2;;;;;;;9.49;96.59766;932.7374;;;;
2022/12/23 09:33:32;;;;;;;4.6;3;;;;;;;9.48;97.33789;932.7779;;;;
2022/12/23 09:36:00;;;;;;;3.4;2.4;;;;;;;9.55;96.05371;932.6972;;;;
2022/12/23 09:38:25;;;;;;;3.5;2.8;;;;;;;9.59;96.37109;932.7473;;;;
2022/12/23 09:40:52;;;;;;;3.4;2.6;;;;;;;9.6;96.30273;932.7156;;;;
2022/12/23 09:43:17;;;;;;;5.2;3.5;;;;;;;9.56;96.14648;932.6566;;;;
2022/12/23 09:45:43;;;;;;;2.9;2.6;;;;;;;9.72;96.04688;932.7028;;;;
2022/12/23 09:48:08;;;;;;;4.3;3.6;;;;;;;10.03;96.2627;932.6813;;;;
2022/12/23 09:50:33;;;;;;;3.5;3.2;;;;;;;10.29;95.42969;932.6807;;;;
2022/12/23 09:53:00;;;;;;;2.5;1.8;;;;;;;10.32;94.62695;932.5836;;;;
2022/12/23 09:55:25;;;;;;;1.7;1.3;;;;;;;10.3;94.05273;932.5725;;;;
2022/12/23 09:57:50;;;;;;;2;1.1;;;;;;;10.39;94.51758;932.528;;;;
2022/12/23 10:00:17;;;;;;;1.9;1.5;;;;;;;10.34;95.52148;932.6425;;;;
2022/12/23 10:02:43;;;;;;;1.4;1.2;;;;;;;10.44;95.65723;932.6883;;;;
2022/12/23 10:05:19;;;;;;;3.3;1.7;;;;;;;10.4;94.87305;932.5105;;;;
2022/12/23 10:07:49;;;;;;;3.1;1.9;;;;;;;10.2;95.77637;932.5184;;;;
2022/12/23 10:10:14;;;;;;;2.8;2.1;;;;;;;10.09;96.98438;932.5708;;;;
2022/12/23 10:12:39;;;;;;;4.6;2.8;;;;;;;10.18;97.70996;932.4365;;;;
2022/12/23 10:15:04;;;;;;;6.8;5;;;;;;;10.26;97.19434;932.5192;;;;
2022/12/23 10:17:36;;;;;;;11.2;6;;;;;;;10.45;97.39648;932.5037;;;;
2022/12/23 10:20:02;;;;;;;7.8;5.7;;;;;;;10.53;96.30762;932.4439;;;;
2022/12/23 10:22:27;;;;;;;8.5;5.9;;;;;;;10.41;96.82715;932.5355;;;;
2022/12/23 10:24:55;;;;;;;8.1;5;;;;;;;10.48;96.22656;932.6724;;;;
2022/12/23 10:27:20;;;;;;;5.8;4.1;;;;;;;10.38;95.28027;932.6697;;;;
2022/12/23 10:29:46;;;;;;;8.1;5.6;;;;;;;10.3;95.86914;932.6481;;;;
2022/12/23 10:32:11;;;;;;;8.6;5.9;;;;;;;10.18;97.12988;932.6895;;;;
2022/12/23 10:34:36;;;;;;;7.4;5.2;;;;;;;10.17;96.97949;932.6394;;;;
2022/12/23 10:37:06;;;;;;;10.2;7.1;;;;;;;10.12;97.86914;932.7386;;;;
2022/12/23 10:39:32;;;;;;;10.5;6.9;;;;;;;10.09;98.55664;932.7156;;;;
2022/12/23 10:42:00;;;;;;;9.6;6.9;;;;;;;10.09;98.95703;932.6719;;;;
2022/12/23 10:44:25;;;;;;;12.3;9;;;;;;;10.14;98.53613;932.7244;;;;
2022/12/23 10:46:51;;;;;;;13.1;9.2;;;;;;;10.27;98.54004;932.6775;;;;
2022/12/23 10:49:16;;;;;;;11.6;7.2;;;;;;;10.33;97.84961;932.699;;;;
2022/12/23 10:51:41;;;;;;;11.7;8.1;;;;;;;10.4;97.83105;932.7683;;;;
2022/12/23 10:54:06;;;;;;;11.4;8.7;;;;;;;10.41;97.83105;932.8113;;;;
2022/12/23 10:56:36;;;;;;;11.8;8.4;;;;;;;10.41;97.96875;932.8734;;;;
2022/12/23 10:59:01;;;;;;;9.3;7.3;;;;;;;10.39;97.85059;932.9586;;;;
2022/12/23 11:01:29;;;;;;;9.7;7.1;;;;;;;10.4;97.40723;932.8591;;;;
2022/12/23 11:03:54;;;;;;;10.5;7.4;;;;;;;10.36;97.54492;932.7914;;;;
2022/12/23 11:06:24;;;;;;;9.4;6.6;;;;;;;10.32;97.9043;932.8597;;;;
2022/12/23 11:08:49;;;;;;;9.2;6.6;;;;;;;10.33;98.20313;932.7786;;;;
2022/12/23 11:11:14;;;;;;;9.1;6.2;;;;;;;10.39;98.13379;932.7374;;;;
2022/12/23 11:13:39;;;;;;;8.2;4.9;;;;;;;10.33;98.47656;932.7467;;;;
2022/12/23 11:16:11;;;;;;;6.1;4;;;;;;;10.39;98.61523;932.7238;;;;
2022/12/23 11:18:36;;;;;;;11.3;7;;;;;;;10.46;98.37988;932.6883;;;;
2022/12/23 11:21:03;;;;;;;8.3;5.8;;;;;;;10.57;97.77637;932.6398;;;;
2022/12/23 11:23:34;;;;;;;7;4;;;;;;;10.54;98.14746;932.6358;;;;
2022/12/23 11:26:01;;;;;;;3.6;2.5;;;;;;;10.49;99.10547;932.5323;;;;
2022/12/23 11:28:26;;;;;;;6.3;3.7;;;;;;;10.51;99.55469;932.4575;;;;
2022/12/23 11:33:21;;;;;;;8.1;5.7;;;;;;;10.84;99.63184;932.3599;;;;
2022/12/23 11:35:49;;;;;;;9.2;7.7;;;;;;;11;98.57227;932.335;;;;
2022/12/23 11:38:14;;;;;;;7.4;5.8;;;;;;;11;97.97754;932.2505;;;;
2022/12/23 11:40:39;;;;;;;2.6;2.2;;;;;;;11.03;97.59473;932.1225;;;;
2022/12/23 11:43:05;;;;;;;2.2;1.4;;;;;;;11.06;97.45313;932.1814;;;;
2022/12/23 11:45:39;;;;;;;1.5;1.1;;;;;;;11.05;97.1875;932.1735;;;;
2022/12/23 11:48:04;;;;;;;2.2;1.1;;;;;;;11.02;97.10156;932.2014;;;;
2022/12/23 11:50:30;;;;;;;2.3;0.9;;;;;;;10.94;97.23242;932.1694;;;;
2022/12/23 11:53:02;;;;;;;6.9;3;;;;;;;10.94;96.02051;932.1526;;;;
2022/12/23 11:55:31;;;;;;;9.7;5.9;;;;;;;11.03;96.29199;932.1328;;;;
2022/12/23 11:57:54;;;;;;;5.2;2.6;;;;;;;11.13;94.63379;932.1605;;;;
2022/12/23 12:00:21;;;;;;;4.2;3.1;;;;;;;11.23;94.47266;932.1342;;;;
2022/12/23 12:02:46;;;;;;;5.1;4.2;;;;;;;11.18;95.11426;932.1133;;;;
2022/12/23 12:05:15;;;;;;;5.8;4.6;;;;;;;11.24;95.78906;932.0425;;;;
2022/12/23 12:07:43;;;;;;;5.5;4.2;;;;;;;11.12;95.98047;932.0577;;;;
2022/12/23 12:10:08;;;;;;;3.6;3.3;;;;;;;11.05;96.43359;932.0404;;;;
2022/12/23 12:12:33;;;;;;;4.4;4;;;;;;;10.95;97.34863;932.0826;;;;
2022/12/23 12:14:58;;;;;;;5.8;5.2;;;;;;;10.91;97.72852;932.0221;;;;
2022/12/23 12:17:29;;;;;;;7;5.9;;;;;;;10.81;98.6543;931.9745;;;;
2022/12/23 12:19:57;;;;;;;8.2;5.9;;;;;;;10.68;99.78906;931.8423;;;;
2022/12/23 12:22:22;;;;;;;8.5;5.8;;;;;;;10.6;100;931.7967;;;;
2022/12/23 12:24:47;;;;;;;7.1;5.5;;;;;;;10.58;100;931.7952;;;;
2022/12/23 12:27:12;;;;;;;5.8;4.5;;;;;;;10.49;100;931.7523;;;;
2022/12/23 12:29:37;;;;;;;5.2;4.1;;;;;;;10.49;100;931.7292;;;;
2022/12/23 12:32:02;;;;;;;5.9;3.8;;;;;;;10.47;100;931.6839;;;;
2022/12/23 12:34:28;;;;;;;4.8;3.4;;;;;;;10.44;100;931.6592;;;;
2022/12/23 12:36:54;;;;;;;5.7;3.6;;;;;;;10.52;100;931.6894;;;;
2022/12/23 12:39:19;;;;;;;5.9;3.2;;;;;;;10.55;100;931.6981;;;;
2022/12/23 12:41:44;;;;;;;5.5;3;;;;;;;10.62;100;931.7524;;;;
2022/12/23 12:44:10;;;;;;;3.6;2.3;;;;;;;10.51;100;931.7419;;;;
2022/12/23 12:46:35;;;;;;;4;2.4;;;;;;;10.58;99.26563;931.671;;;;
2022/12/23 12:49:04;;;;;;;4.4;3.2;;;;;;;10.67;98.92969;931.6783;;;;
2022/12/23 12:51:29;;;;;;;3.1;2.3;;;;;;;10.69;98.40918;931.6758;;;;
2022/12/23 12:53:55;;;;;;;2.1;1.5;;;;;;;10.61;98.16211;931.6223;;;;
2022/12/23 12:56:20;;;;;;;2.2;1.5;;;;;;;10.58;98.69238;931.6082;;;;
2022/12/23 12:58:47;;;;;;;3.3;2;;;;;;;10.65;98.32031;931.4379;;;;
2022/12/23 13:01:12;;;;;;;4.8;3.6;;;;;;;10.6;98.03418;931.4576;;;;
2022/12/23 13:03:37;;;;;;;4.6;3.2;;;;;;;10.6;98.01172;931.4202;;;;
2022/12/23 13:06:02;;;;;;;4.8;3.4;;;;;;;10.52;98.42871;931.4196;;;;
2022/12/23 13:08:27;;;;;;;4.7;2.9;;;;;;;10.42;98.76953;931.4277;;;;
2022/12/23 13:10:52;;;;;;;4.1;2.9;;;;;;;10.43;99.05664;931.3862;;;;
2022/12/23 13:13:17;;;;;;;5.9;3.9;;;;;;;10.42;98.88379;931.3289;;;;
2022/12/23 13:15:49;;;;;;;6.4;3.8;;;;;;;10.51;99.29492;931.2899;;;;
2022/12/23 13:18:14;;;;;;;6;4;;;;;;;10.48;98.54395;931.2119;;;;
2022/12/23 13:20:42;;;;;;;6.7;5;;;;;;;10.49;98.50098;931.0901;;;;
2022/12/23 13:23:07;;;;;;;8.8;6;;;;;;;10.44;98.79883;931.0901;;;;
2022/12/23 13:25:33;;;;;;;8.5;5.8;;;;;;;10.43;99.11621;931.149;;;;
2022/12/23 13:27:58;;;;;;;9.1;6;;;;;;;10.47;99.48047;931.1211;;;;
2022/12/23 13:30:25;;;;;;;6;5.3;;;;;;;10.45;99.06348;930.962;;;;
2022/12/23 13:32:50;;;;;;;6.8;5.2;;;;;;;10.55;98.82324;930.9324;;;;
2022/12/23 13:35:16;;;;;;;6.3;5.3;;;;;;;10.6;98.6875;930.937;;;;
2022/12/23 13:37:41;;;;;;;7.8;6;;;;;;;10.56;98.33398;930.8956;;;;
2022/12/23 13:40:06;;;;;;;7;5.5;;;;;;;10.57;98.07129;930.9395;;;;
2022/12/23 13:42:32;;;;;;;5.6;4.2;;;;;;;10.4;97.53418;930.981;;;;
2022/12/23 13:44:58;;;;;;;4.3;3.3;;;;;;;10.41;98.03711;930.8153;;;;
2022/12/23 13:47:23;;;;;;;4.1;3.2;;;;;;;10.28;98.11133;930.8666;;;;
2022/12/23 13:49:48;;;;;;;6;3.5;;;;;;;10.24;98.86719;930.9342;;;;
2022/12/23 13:52:13;;;;;;;5.9;4.5;;;;;;;10.32;99.20508;930.8331;;;;
2022/12/23 13:54:41;;;;;;;7.7;5.1;;;;;;;10.45;98.75488;930.9373;;;;
2022/12/23 13:57:08;;;;;;;41.8;30.3;;;;;;;10.42;98.46289;930.9072;;;;
2022/12/23 13:59:33;;;;;;;22;16;;;;;;;10.35;98.34375;930.9579;;;;
2022/12/23 14:01:58;;;;;;;5.5;3.6;;;;;;;10.39;98.72656;930.8814;;;;
2022/12/23 14:04:27;;;;;;;3.8;2.7;;;;;;;10.34;98.76465;930.9174;;;;
2022/12/23 14:06:58;;;;;;;5.9;4;;;;;;;10.34;98.92383;930.9086;;;;
2022/12/23 14:09:23;;;;;;;6.8;4.9;;;;;;;10.41;98.84766;931.0422;;;;
2022/12/23 14:11:48;;;;;;;8.3;6.3;;;;;;;10.46;98.87109;931.005;;;;
2022/12/23 14:14:16;;;;;;;8.8;5.4;;;;;;;10.31;98.4707;931.0112;;;;
2022/12/23 14:17:19;;;;;;;14.8;9.6;;;;;;;10.28;98.75;930.8959;;;;
2022/12/23 14:19:46;;;;;;;9.2;6.3;;;;;;;10.22;99.24902;931.0051;;;;
2022/12/23 14:22:11;;;;;;;22.3;16.4;;;;;;;10.15;100;931.0555;;;;
2022/12/23 14:24:36;;;;;;;8.9;5.6;;;;;;;10.17;100;931.0396;;;;
2022/12/23 14:27:05;;;;;;;10.4;7.9;;;;;;;10.26;99.94141;931.1195;;;;
2022/12/23 14:29:44;;;;;;;10.9;7;;;;;;;10.28;100;931.1514;;;;
2022/12/23 14:32:09;;;;;;;15.4;11.6;;;;;;;10.3;99.65527;931.1323;;;;
2022/12/23 14:34:35;;;;;;;11.9;8.1;;;;;;;10.3;99.66895;931.0884;;;;
2022/12/23 14:36:59;;;;;;;12;9.4;;;;;;;10.37;99.4209;931.0033;;;;
2022/12/23 14:39:24;;;;;;;18.6;16.7;;;;;;;10.24;99.68848;931.0145;;;;
2022/12/23 14:41:52;;;;;;;8.1;5.7;;;;;;;10.24;100;931.0106;;;;
2022/12/23 14:44:17;;;;;;;11.4;7.4;;;;;;;10.16;100;931.0339;;;;
2022/12/23 14:46:42;;;;;;;7;5.8;;;;;;;10.09;100;930.9839;;;;
2022/12/23 14:49:11;;;;;;;16.1;11.7;;;;;;;10.18;100;930.9384;;;;
2022/12/23 14:51:36;;;;;;;4.5;3.9;;;;;;;10.12;100;930.9409;;;;
2022/12/23 14:54:02;;;;;;;5.2;3.4;;;;;;;10.11;100;930.9258;;;;
2022/12/23 14:56:27;;;;;;;13.5;10.3;;;;;;;10.16;100;930.9433;;;;
2022/12/23 14:58:53;;;;;;;13;10.1;;;;;;;10.16;100;930.9289;;;;
2022/12/23 15:01:19;;;;;;;15.1;12.9;;;;;;;10.26;100;930.9214;;;;
2022/12/23 15:03:44;;;;;;;7.2;5.1;;;;;;;10.22;100;930.8937;;;;
2022/12/23 15:06:12;;;;;;;7.1;4.7;;;;;;;10.18;100;930.8287;;;;
2022/12/23 15:08:38;;;;;;;6;4.1;;;;;;;10;100;930.9303;;;;
2022/12/23 15:11:03;;;;;;;5;2.8;;;;;;;9.9;100;930.9519;;;;
2022/12/23 15:13:28;;;;;;;3.1;2.2;;;;;;;9.85;100;930.9614;;;;
2022/12/23 15:16:00;;;;;;;5.2;3.3;;;;;;;9.94;100;930.9805;;;;
2022/12/23 15:18:27;;;;;;;14.5;9.7;;;;;;;9.99;100;930.9295;;;;
2022/12/23 15:20:52;;;;;;;7.1;4.3;;;;;;;9.91;100;931.0465;;;;
2022/12/23 15:23:19;;;;;;;7.3;3.7;;;;;;;9.91;100;931.0847;;;;
2022/12/23 15:25:44;;;;;;;14.2;6.7;;;;;;;9.89;100;931.1197;;;;
2022/12/23 15:28:12;;;;;;;24.7;13.8;;;;;;;9.91;100;931.1323;;;;
2022/12/23 15:30:37;;;;;;;11;7.7;;;;;;;9.94;100;931.1602;;;;
2022/12/23 15:33:02;;;;;;;16.4;12;;;;;;;9.96;100;931.2159;;;;
2022/12/23 15:35:28;;;;;;;15.4;10.6;;;;;;;10.04;100;931.2416;;;;
2022/12/23 15:37:55;;;;;;;10.5;7.2;;;;;;;10.04;100;931.2026;;;;
2022/12/23 15:40:20;;;;;;;6.6;5.2;;;;;;;10.11;100;931.1175;;;;
2022/12/23 15:42:45;;;;;;;9.3;5.4;;;;;;;10.14;100;931.3267;;;;
2022/12/23 15:45:10;;;;;;;6.9;5.5;;;;;;;10.12;100;931.2241;;;;
2022/12/23 15:47:40;;;;;;;13.8;8.5;;;;;;;9.96;100;931.2866;;;;
2022/12/23 15:50:11;;;;;;;35.1;25.3;;;;;;;9.99;100;931.2166;;;;
2022/12/23 15:52:38;;;;;;;13.2;10.4;;;;;;;9.94;100;931.1459;;;;
2022/12/23 15:55:04;;;;;;;15.7;11;;;;;;;9.82;100;931.2222;;;;
2022/12/23 15:57:29;;;;;;;13.5;9.1;;;;;;;9.85;100;931.134;;;;
2022/12/23 15:59:54;;;;;;;9.6;7.1;;;;;;;9.76;100;931.283;;;;
2022/12/23 16:02:19;;;;;;;5.6;4.7;;;;;;;9.79;100;931.2187;;;;
2022/12/23 16:04:44;;;;;;;11.1;8.6;;;;;;;9.84;100;931.2492;;;;
2022/12/23 16:07:09;;;;;;;25.3;19.2;;;;;;;9.86;100;931.1753;;;;
2022/12/23 16:09:34;;;;;;;12.1;8.1;;;;;;;9.8;100;931.2275;;;;
2022/12/23 16:12:02;;;;;;;11.7;7.6;;;;;;;9.84;100;931.2819;;;;
2022/12/23 16:14:28;;;;;;;10.9;8.5;;;;;;;9.88;100;931.2938;;;;
2022/12/23 16:16:55;;;;;;;13.8;9.8;;;;;;;9.89;100;931.3033;;;;
2022/12/23 16:19:20;;;;;;;10.6;6.6;;;;;;;9.89;100;931.3391;;;;
2022/12/23 16:21:45;;;;;;;9.9;6.4;;;;;;;9.85;100;931.4138;;;;
2022/12/23 16:24:10;;;;;;;9.8;7.2;;;;;;;9.92;100;931.4155;;;;
2022/12/23 16:26:35;;;;;;;12.9;8.7;;;;;;;9.89;100;931.4878;;;;
2022/12/23 16:29:04;;;;;;;89.4;56.4;;;;;;;9.88;100;931.5403;;;;
2022/12/23 16:31:29;;;;;;;5.6;4;;;;;;;9.89;100;931.5419;;;;
2022/12/23 16:33:54;;;;;;;5.6;5.1;;;;;;;9.84;100;931.5831;;;;
2022/12/23 16:36:20;;;;;;;4.4;3.2;;;;;;;9.76;100;931.5955;;;;
2022/12/23 16:38:45;;;;;;;9.1;5;;;;;;;9.81;100;931.6114;;;;
2022/12/23 16:41:14;;;;;;;22.9;12.3;;;;;;;9.84;100;931.5363;;;;
2022/12/23 16:43:40;;;;;;;27.9;18.7;;;;;;;9.87;100;931.4297;;;;
2022/12/23 16:46:07;;;;;;;20.8;13.5;;;;;;;9.8;100;931.5215;;;;